Terminal Aerodrome Forecast
Issued by NWS Shreveport, LA

Home | Current Version | Previous Version | Text Only | Print | Product List | Glossary On
Versions: 1 2 3 4 5 6 7 8 9 10 11 12 13
283
FTUS44 KSHV 252322
TAFSHV
TAF
KSHV 252322Z 2600/2624 17014G22KT P6SM SCT035
      TEMPO 2602/2606 BKN030
     FM260600 17013G21KT P6SM OVC025
      TEMPO 2608/2612 OVC015
     FM261200 17012KT P6SM OVC010
     FM261500 17014G24KT P6SM OVC015
     FM261800 18017G27KT P6SM OVC025
     FM262100 20018G28KT P6SM VCTS OVC030CB=

USA.gov is the U.S. government's official web portal to all federal, state and local government web resources and services.